createdAt,value
2023-02-27T00:01:31.280Z,401.48
2023-02-27T00:06:38.470Z,401.66
2023-02-27T00:11:45.772Z,401.25
2023-02-27T00:16:52.944Z,400.90
2023-02-27T00:22:00.128Z,400.81
2023-02-27T00:27:07.375Z,400.59
2023-02-27T00:32:14.644Z,400.32
2023-02-27T00:37:22.047Z,400.23
2023-02-27T00:42:29.247Z,400.10
2023-02-27T00:47:36.448Z,400.49
2023-02-27T00:52:43.617Z,400.42
2023-02-27T00:57:50.874Z,400.45
2023-02-27T01:02:58.002Z,400.72
2023-02-27T01:08:05.278Z,400.83
2023-02-27T01:13:12.503Z,400.32
2023-02-27T01:18:19.886Z,401.03
2023-02-27T01:23:27.113Z,400.90
2023-02-27T01:28:34.355Z,401.30
2023-02-27T01:33:41.518Z,401.35
2023-02-27T01:38:48.689Z,401.42
2023-02-27T01:43:56.104Z,401.15
2023-02-27T01:49:03.790Z,400.52
2023-02-27T01:54:11.202Z,400.52
2023-02-27T01:59:18.593Z,400.67
2023-02-27T02:04:26.434Z,400.72
2023-02-27T02:09:37.119Z,399.93
2023-02-27T02:14:44.757Z,400.04
2023-02-27T02:19:52.317Z,399.94
2023-02-27T02:25:00.067Z,399.87
2023-02-27T02:30:07.564Z,399.78
2023-02-27T02:35:14.911Z,399.96
2023-02-27T02:40:22.174Z,399.68
2023-02-27T02:45:30.014Z,399.96
2023-02-27T02:50:37.221Z,399.34
2023-02-27T02:55:44.390Z,399.26
2023-02-27T03:00:51.627Z,399.16
2023-02-27T03:05:58.800Z,399.75
2023-02-27T03:11:05.957Z,399.35
2023-02-27T03:16:13.218Z,399.47
2023-02-27T03:21:20.406Z,399.03
2023-02-27T03:26:27.630Z,399.07
2023-02-27T03:31:34.937Z,398.21
2023-02-27T03:36:42.014Z,398.42
2023-02-27T03:41:49.180Z,398.38
2023-02-27T03:46:56.442Z,398.05
2023-02-27T03:52:03.625Z,396.89
2023-02-27T03:57:10.795Z,396.37
2023-02-27T04:02:18.064Z,396.56
2023-02-27T04:07:25.278Z,395.58
2023-02-27T04:12:32.578Z,395.65
2023-02-27T04:17:39.882Z,395.20
2023-02-27T04:22:47.191Z,394.38
2023-02-27T04:27:54.602Z,394.48
2023-02-27T04:33:02.041Z,394.77
2023-02-27T04:38:09.356Z,394.46
2023-02-27T04:43:16.810Z,394.50
2023-02-27T04:48:26.109Z,394.44
2023-02-27T04:53:33.542Z,394.27
2023-02-27T04:58:41.156Z,394.08
2023-02-27T05:03:48.776Z,394.11
2023-02-27T05:08:56.357Z,394.02
2023-02-27T05:14:03.764Z,394.23
2023-02-27T05:19:11.175Z,394.64
2023-02-27T05:24:18.578Z,394.32
2023-02-27T05:29:26.190Z,394.06
2023-02-27T05:34:33.637Z,394.24
2023-02-27T05:39:44.180Z,393.87
2023-02-27T05:44:51.605Z,394.11
2023-02-27T05:49:58.942Z,394.28
2023-02-27T05:55:06.293Z,393.84
2023-02-27T06:00:13.872Z,394.16
2023-02-27T06:05:21.321Z,393.90
2023-02-27T06:10:28.828Z,393.77
2023-02-27T06:15:36.343Z,393.60
2023-02-27T06:20:43.947Z,392.87
2023-02-27T06:25:51.291Z,392.64
2023-02-27T06:31:08.042Z,392.14
2023-02-27T06:36:07.808Z,391.91
2023-02-27T06:41:15.060Z,391.17
2023-02-27T06:46:22.444Z,390.83
2023-02-27T06:51:29.842Z,390.41
2023-02-27T06:56:37.217Z,390.32
2023-02-27T07:01:44.588Z,390.15
2023-02-27T07:07:32.313Z,389.89
2023-02-27T07:11:59.823Z,389.95
2023-02-27T07:17:07.165Z,389.56
2023-02-27T07:22:14.559Z,389.49
2023-02-27T07:27:21.938Z,389.76
2023-02-27T07:32:29.286Z,388.93
2023-02-27T07:37:36.540Z,388.81
2023-02-27T07:42:43.998Z,387.97
2023-02-27T07:47:51.451Z,387.73
2023-02-27T07:52:58.805Z,387.95
2023-02-27T07:58:06.196Z,388.14
2023-02-27T08:03:13.526Z,388.12
2023-02-27T08:08:21.158Z,387.66
2023-02-27T08:13:59.044Z,387.76
2023-02-27T08:18:36.058Z,387.65
2023-02-27T08:23:43.670Z,387.01
2023-02-27T08:28:51.264Z,386.56
2023-02-27T08:34:09.442Z,386.03
2023-02-27T08:39:07.047Z,385.82
2023-02-27T08:44:14.326Z,385.24
2023-02-27T08:49:21.815Z,384.87
2023-02-27T08:54:29.214Z,384.54
2023-02-27T08:59:36.541Z,384.53
2023-02-27T09:04:44.025Z,383.88
2023-02-27T09:09:51.522Z,383.65
2023-02-27T09:14:58.944Z,383.44
2023-02-27T09:20:06.567Z,383.87
2023-02-27T09:25:13.853Z,383.40
2023-02-27T09:30:30.094Z,383.48
2023-02-27T09:35:39.387Z,382.51
2023-02-27T09:40:46.753Z,382.41
2023-02-27T09:45:54.340Z,381.97
2023-02-27T09:51:01.777Z,381.29
2023-02-27T09:56:09.142Z,381.21
2023-02-27T10:01:16.585Z,380.88
2023-02-27T10:06:23.962Z,380.73
2023-02-27T10:11:32.526Z,380.61
2023-02-27T10:16:43.194Z,380.23
2023-02-27T10:21:50.827Z,379.68
2023-02-27T10:27:00.215Z,379.35
2023-02-27T10:32:09.725Z,378.89
2023-02-27T10:37:16.872Z,379.05
2023-02-27T10:42:33.737Z,378.39
2023-02-27T10:47:41.424Z,377.91
2023-02-27T10:52:50.007Z,378.20
2023-02-27T10:58:05.892Z,378.05
2023-02-27T11:03:13.383Z,377.78
2023-02-27T11:08:20.947Z,377.50
2023-02-27T11:13:28.607Z,377.87
2023-02-27T11:18:35.914Z,377.39
2023-02-27T11:23:46.857Z,377.49
2023-02-27T11:29:08.960Z,378.26
2023-02-27T11:34:16.626Z,378.37
2023-02-27T11:39:24.759Z,378.10
2023-02-27T11:44:50.794Z,378.26
2023-02-27T11:49:44.909Z,377.61
2023-02-27T11:54:52.374Z,376.97
2023-02-27T12:00:02.814Z,376.54
2023-02-27T12:05:14.312Z,376.87
2023-02-27T12:10:26.130Z,376.20
2023-02-27T12:15:33.501Z,376.63
2023-02-27T12:20:43.270Z,376.58
2023-02-27T12:25:49.974Z,376.60
2023-02-27T12:30:57.252Z,376.91
2023-02-27T12:36:04.802Z,376.82
2023-02-27T12:41:12.201Z,376.64
2023-02-27T12:46:19.675Z,376.31
2023-02-27T12:51:27.625Z,376.05
2023-02-27T12:56:34.783Z,375.76
2023-02-27T13:01:42.141Z,375.37
2023-02-27T13:06:50.063Z,375.49
2023-02-27T13:12:12.727Z,375.43
2023-02-27T13:17:24.819Z,375.55
2023-02-27T13:22:32.378Z,374.97
2023-02-27T13:27:39.981Z,374.84
2023-02-27T13:32:47.501Z,374.21
2023-02-27T13:37:54.622Z,374.33
2023-02-27T13:43:02.003Z,373.69
2023-02-27T13:48:15.961Z,373.52
2023-02-27T13:53:37.904Z,373.32
2023-02-27T13:58:40.188Z,373.27
2023-02-27T14:03:47.803Z,373.03
2023-02-27T14:09:04.994Z,373.12
2023-02-27T14:14:07.676Z,372.93
2023-02-27T14:19:19.921Z,372.70
2023-02-27T14:24:34.883Z,372.59
2023-02-27T14:29:42.478Z,371.58
2023-02-27T14:34:56.130Z,372.44
2023-02-27T14:40:21.197Z,372.19
2023-02-27T14:45:18.958Z,371.83
2023-02-27T14:50:24.405Z,372.46
2023-02-27T14:55:38.169Z,372.38
2023-02-27T15:00:45.537Z,372.41
2023-02-27T15:05:52.994Z,372.04
2023-02-27T15:11:06.409Z,371.71
2023-02-27T15:16:16.505Z,371.42
2023-02-27T15:21:24.746Z,371.18
2023-02-27T15:26:44.600Z,370.52
2023-02-27T15:31:54.570Z,370.14
2023-02-27T15:37:00.137Z,369.79
2023-02-27T15:42:25.977Z,369.29
2023-02-27T15:47:28.174Z,368.58
2023-02-27T15:52:35.910Z,368.29
2023-02-27T15:57:56.522Z,367.91
2023-02-27T16:03:29.002Z,367.23
2023-02-27T16:08:36.425Z,366.74
2023-02-27T16:14:11.088Z,366.46
2023-02-27T16:19:08.652Z,365.68
2023-02-27T16:24:16.409Z,365.23
2023-02-27T16:29:27.484Z,364.43
2023-02-27T16:34:45.758Z,363.56
2023-02-27T16:45:02.620Z,362.25
2023-02-27T16:50:15.213Z,361.91
2023-02-27T16:55:22.374Z,361.17
2023-02-27T17:00:29.895Z,360.83
2023-02-27T17:05:37.585Z,360.37
2023-02-27T17:10:44.929Z,360.02
2023-02-27T17:15:52.158Z,359.62
2023-02-27T17:20:59.913Z,358.91
2023-02-27T17:26:07.629Z,358.57
2023-02-27T17:31:15.270Z,358.04
2023-02-27T17:36:22.993Z,357.45
2023-02-27T17:41:30.580Z,356.74
2023-02-27T17:46:38.121Z,356.55
2023-02-27T17:51:45.807Z,356.47
2023-02-27T17:56:53.414Z,356.15
2023-02-27T18:02:01.004Z,355.31
2023-02-27T18:07:08.249Z,355.81
2023-02-27T18:12:15.483Z,355.19
2023-02-27T18:17:23.080Z,354.85
2023-02-27T18:22:30.871Z,354.83
2023-02-27T18:27:39.614Z,354.36
2023-02-27T18:32:47.321Z,354.28
2023-02-27T18:37:54.944Z,354.65
2023-02-27T18:43:02.377Z,354.08
2023-02-27T18:48:09.574Z,353.89
2023-02-27T18:53:17.079Z,354.35
2023-02-27T18:58:24.796Z,353.95
2023-02-27T19:03:32.512Z,353.74
2023-02-27T19:08:41.096Z,353.22
2023-02-27T19:13:48.770Z,353.12
2023-02-27T19:18:56.495Z,353.31
2023-02-27T19:24:04.606Z,353.24
2023-02-27T19:29:12.017Z,353.44
2023-02-27T19:34:19.651Z,353.63
2023-02-27T19:39:27.237Z,353.57
2023-02-27T19:44:34.851Z,353.28
2023-02-27T19:49:42.499Z,353.36
2023-02-27T19:54:50.187Z,353.36
2023-02-27T19:59:57.902Z,353.72
2023-02-27T20:05:05.262Z,353.29
2023-02-27T20:10:12.722Z,353.33
2023-02-27T20:15:20.650Z,353.44
2023-02-27T20:20:29.638Z,353.67
2023-02-27T20:25:35.972Z,353.49
2023-02-27T20:30:43.647Z,353.52
2023-02-27T20:35:51.365Z,353.60
2023-02-27T20:40:58.834Z,354.10
2023-02-27T20:46:06.444Z,354.70
2023-02-27T20:51:13.977Z,355.36
2023-02-27T20:56:21.300Z,355.53
2023-02-27T21:01:29.162Z,356.12
2023-02-27T21:06:36.460Z,356.16
2023-02-27T21:11:43.857Z,356.41
2023-02-27T21:16:51.078Z,356.46
2023-02-27T21:21:58.639Z,357.07
2023-02-27T21:27:05.918Z,357.46
2023-02-27T21:32:13.485Z,357.23
2023-02-27T21:37:20.983Z,357.72
2023-02-27T21:42:28.162Z,357.54
2023-02-27T21:47:35.395Z,358.03
2023-02-27T21:52:42.580Z,358.08
2023-02-27T21:57:49.711Z,357.67
2023-02-27T22:02:57.011Z,357.80
2023-02-27T22:08:04.130Z,358.24
2023-02-27T22:13:11.273Z,358.59
2023-02-27T22:18:18.473Z,358.61
2023-02-27T22:23:25.683Z,359.16
2023-02-27T22:28:33.046Z,358.67
2023-02-27T22:33:40.210Z,358.64
2023-02-27T22:38:47.415Z,358.56
2023-02-27T22:43:54.602Z,358.74
2023-02-27T22:49:01.795Z,358.77
2023-02-27T22:54:08.994Z,358.60
2023-02-27T22:59:16.130Z,358.92
2023-02-27T23:04:23.325Z,359.30
2023-02-27T23:09:30.554Z,359.06
2023-02-27T23:14:37.807Z,359.78
2023-02-27T23:19:45.004Z,359.68
2023-02-27T23:24:53.208Z,359.52
2023-02-27T23:30:00.413Z,359.37
2023-02-27T23:35:07.637Z,359.56
2023-02-27T23:40:14.846Z,359.94
2023-02-27T23:45:22.004Z,359.73
2023-02-27T23:50:29.180Z,359.91
2023-02-27T23:55:36.406Z,360.01
